createdAt,value
2023-03-11T00:03:44.868Z,1.73
2023-03-11T00:12:02.798Z,1.50
2023-03-11T00:14:57.913Z,1.38
2023-03-11T00:17:33.970Z,1.90
2023-03-11T00:20:25.133Z,1.60
2023-03-11T00:23:16.425Z,1.48
2023-03-11T00:25:50.540Z,1.70
2023-03-11T00:28:28.769Z,1.55
2023-03-11T00:31:01.718Z,1.52
2023-03-11T00:33:35.099Z,1.48
2023-03-11T00:36:08.397Z,1.55
2023-03-11T00:38:44.244Z,1.88
2023-03-11T00:42:15.152Z,2.08
2023-03-11T00:44:48.521Z,1.67
2023-03-11T00:47:31.601Z,1.35
2023-03-11T00:50:21.331Z,1.67
2023-03-11T00:52:59.512Z,1.23
2023-03-11T00:55:34.199Z,1.33
2023-03-11T00:58:10.497Z,1.77
2023-03-11T01:09:26.137Z,1.48
2023-03-11T01:12:01.488Z,1.60
2023-03-11T01:14:38.238Z,1.95
2023-03-11T01:17:44.913Z,1.58
2023-03-11T01:20:32.102Z,1.30
2023-03-11T01:23:27.622Z,1.67
2023-03-11T01:26:02.476Z,1.92
2023-03-11T01:29:08.390Z,1.67
2023-03-11T01:32:26.762Z,1.77
2023-03-11T01:38:08.506Z,1.52
2023-03-11T01:40:47.391Z,1.20
2023-03-11T01:44:31.795Z,1.20
2023-03-11T02:03:25.135Z,1.65
2023-03-11T02:09:39.220Z,1.20
2023-03-11T02:16:18.174Z,1.88
2023-03-11T02:19:29.907Z,1.38
2023-03-11T02:22:28.338Z,1.50
2023-03-11T02:25:23.789Z,1.45
2023-03-11T02:28:34.669Z,1.80
2023-03-11T02:31:36.145Z,1.40
2023-03-11T02:38:10.243Z,1.33
2023-03-11T02:40:56.331Z,1.25
2023-03-11T02:43:49.379Z,1.50
2023-03-11T02:46:48.073Z,1.20
2023-03-11T02:49:53.222Z,1.48
2023-03-11T02:53:02.804Z,1.73
2023-03-11T02:59:34.833Z,1.75
2023-03-11T03:02:29.146Z,1.40
2023-03-11T03:05:47.820Z,1.38
2023-03-11T03:08:57.259Z,1.90
2023-03-11T03:12:43.759Z,2.00
2023-03-11T03:16:20.370Z,1.40
2023-03-11T03:19:36.630Z,1.48
2023-03-11T03:23:08.455Z,1.75
2023-03-11T03:27:02.979Z,1.38
2023-03-11T03:30:03.296Z,1.52
2023-03-11T03:33:14.773Z,1.40
2023-03-11T03:36:16.097Z,1.80
2023-03-11T03:39:30.606Z,1.88
2023-03-11T03:46:24.449Z,1.60
2023-03-11T03:49:34.033Z,1.60
2023-03-11T03:52:21.781Z,1.60
2023-03-11T03:55:21.500Z,1.98
2023-03-11T03:58:14.290Z,1.40
2023-03-11T04:01:22.167Z,1.50
2023-03-11T04:04:07.722Z,1.70
2023-03-11T04:09:53.727Z,1.38
2023-03-11T04:12:40.166Z,2.20
2023-03-11T04:15:16.469Z,1.58
2023-03-11T04:17:53.272Z,2.00
2023-03-11T04:21:06.147Z,1.80
2023-03-11T04:23:39.483Z,1.40
2023-03-11T04:26:40.150Z,1.00
2023-03-11T04:29:25.952Z,1.80
2023-03-11T04:32:13.489Z,1.88
2023-03-11T04:35:01.247Z,2.28
2023-03-11T04:38:56.170Z,2.03
2023-03-11T04:41:21.241Z,1.60
2023-03-11T04:44:20.183Z,1.75
2023-03-11T04:54:37.130Z,1.85
2023-03-11T04:57:35.312Z,1.48
2023-03-11T05:03:38.113Z,2.00
2023-03-11T05:10:10.329Z,2.28
2023-03-11T05:16:57.912Z,2.58
2023-03-11T05:22:54.344Z,1.85
2023-03-11T05:25:28.202Z,1.55
2023-03-11T05:28:01.264Z,1.60
2023-03-11T05:30:44.592Z,1.92
2023-03-11T05:33:17.993Z,1.58
2023-03-11T05:35:55.542Z,1.40
2023-03-11T05:38:46.545Z,1.35
2023-03-11T05:41:43.964Z,2.00
2023-03-11T05:45:01.559Z,2.28
2023-03-11T05:48:15.102Z,2.00
2023-03-11T05:51:23.998Z,1.88
2023-03-11T05:54:21.488Z,2.20
2023-03-11T05:58:02.011Z,2.22
2023-03-11T06:00:41.778Z,1.70
2023-03-11T06:07:14.498Z,2.00
2023-03-11T06:10:00.498Z,2.00
2023-03-11T06:12:54.945Z,1.92
2023-03-11T06:16:32.738Z,2.03
2023-03-11T06:19:33.112Z,2.25
2023-03-11T06:30:51.369Z,2.03
2023-03-11T07:04:44.748Z,2.28
2023-03-11T07:08:20.793Z,2.05
2023-03-11T07:11:14.731Z,2.13
2023-03-11T07:13:55.308Z,3.08
2023-03-11T07:16:30.243Z,2.15
2023-03-11T07:19:10.586Z,2.42
2023-03-11T07:21:43.278Z,2.65
2023-03-11T08:20:35.917Z,1.80
2023-03-11T08:23:20.236Z,1.50
2023-03-11T08:46:45.614Z,1.40
2023-03-11T08:50:17.698Z,1.40
2023-03-11T08:53:15.844Z,1.48
2023-03-11T08:59:03.057Z,2.28
2023-03-11T09:05:58.482Z,2.20
2023-03-11T09:08:39.612Z,1.70
2023-03-11T09:32:12.904Z,1.40
2023-03-11T09:36:07.536Z,1.27
2023-03-11T10:08:53.445Z,1.42
2023-03-11T10:12:33.648Z,1.50
2023-03-11T10:15:43.834Z,1.50
2023-03-11T10:18:37.301Z,1.40
2023-03-11T10:29:00.840Z,2.08
2023-03-11T10:35:39.819Z,1.90
2023-03-11T10:39:06.762Z,1.50
2023-03-11T10:41:52.411Z,1.60
2023-03-11T10:45:23.823Z,1.35
2023-03-11T10:48:00.447Z,1.67
2023-03-11T10:50:59.592Z,1.98
2023-03-11T10:54:05.218Z,2.22
2023-03-11T10:57:05.625Z,1.80
2023-03-11T10:59:55.508Z,1.73
2023-03-11T11:02:51.621Z,1.40
2023-03-11T11:05:56.508Z,1.92
2023-03-11T11:08:51.395Z,2.03
2023-03-11T11:11:41.958Z,1.80
2023-03-11T11:14:46.313Z,1.13
2023-03-11T11:17:35.719Z,1.30
2023-03-11T11:20:27.831Z,1.63
2023-03-11T11:24:03.296Z,1.88
2023-03-11T11:26:40.660Z,1.33
2023-03-11T11:29:35.188Z,1.50
2023-03-11T11:32:42.523Z,1.45
2023-03-11T11:35:47.292Z,1.67
2023-03-11T11:41:24.021Z,1.73
2023-03-11T11:44:20.305Z,1.38
2023-03-11T11:47:15.283Z,1.27
2023-03-11T11:50:29.779Z,1.30
2023-03-11T11:58:04.449Z,1.48
2023-03-11T12:01:48.441Z,1.40
2023-03-11T12:04:25.086Z,1.70
2023-03-11T12:07:33.805Z,1.33
2023-03-11T12:10:21.233Z,1.40
2023-03-11T12:13:44.277Z,1.52
2023-03-11T12:16:29.687Z,1.40
2023-03-11T12:19:32.616Z,1.63
2023-03-11T12:23:13.296Z,1.50
2023-03-11T12:26:20.383Z,1.65
2023-03-11T12:29:44.778Z,1.40
2023-03-11T12:32:55.721Z,1.20
2023-03-11T12:35:33.252Z,1.55
2023-03-11T12:38:40.816Z,1.25
2023-03-11T12:41:31.420Z,1.02
2023-03-11T12:44:23.231Z,1.38
2023-03-11T12:47:01.508Z,1.25
2023-03-11T12:49:46.934Z,1.20
2023-03-11T14:01:47.216Z,0.98
2023-03-11T14:04:59.292Z,1.10
2023-03-11T14:08:06.746Z,1.20
2023-03-11T14:11:18.038Z,1.20
2023-03-11T14:19:33.073Z,1.45
2023-03-11T14:26:22.306Z,0.98
2023-03-11T14:38:03.600Z,1.00
2023-03-11T14:53:13.484Z,1.50
2023-03-11T15:00:53.387Z,1.15
2023-03-11T15:03:45.957Z,1.10
2023-03-11T15:06:23.801Z,1.00
2023-03-11T15:09:20.538Z,0.90
2023-03-11T15:12:06.421Z,1.55
2023-03-11T15:18:34.558Z,1.00
2023-03-11T15:21:20.353Z,1.33
2023-03-11T15:24:05.454Z,1.10
2023-03-11T15:26:40.433Z,1.10
2023-03-11T15:29:17.438Z,1.40
2023-03-11T15:31:50.580Z,1.25
2023-03-11T15:34:28.662Z,1.48
2023-03-11T15:40:45.000Z,2.30
2023-03-11T15:43:47.388Z,1.35
2023-03-11T15:46:21.881Z,1.05
2023-03-11T16:09:23.620Z,1.55
2023-03-11T16:17:02.955Z,1.58
2023-03-11T16:19:54.246Z,1.50
2023-03-11T16:23:44.727Z,1.40
2023-03-11T16:26:36.178Z,1.73
2023-03-11T16:29:19.746Z,1.48
2023-03-11T16:32:12.241Z,1.58
2023-03-11T16:34:52.417Z,1.75
2023-03-11T16:37:31.857Z,1.88
2023-03-11T16:40:47.077Z,1.60
2023-03-11T16:43:23.532Z,1.40
2023-03-11T16:45:58.875Z,2.00
2023-03-11T16:48:31.757Z,1.58
2023-03-11T16:51:11.676Z,1.42
2023-03-11T16:54:07.592Z,2.13
2023-03-11T16:56:41.800Z,1.80
2023-03-11T16:59:14.916Z,2.33
2023-03-11T17:01:48.127Z,2.05
2023-03-11T17:04:25.440Z,1.70
2023-03-11T17:07:09.338Z,1.90
2023-03-11T17:09:44.588Z,2.22
2023-03-11T17:15:02.278Z,2.33
2023-03-11T17:17:51.044Z,2.25
2023-03-11T17:20:45.597Z,2.17
2023-03-11T17:23:18.527Z,2.30
2023-03-11T17:28:41.138Z,1.67
2023-03-11T17:31:19.470Z,1.45
2023-03-11T17:33:52.494Z,1.80
2023-03-11T17:36:25.755Z,1.40
2023-03-11T17:39:01.598Z,1.63
2023-03-11T17:41:36.399Z,1.60
2023-03-11T17:44:19.074Z,1.70
2023-03-11T17:47:00.953Z,2.28
2023-03-11T17:49:36.748Z,2.45
2023-03-11T17:52:13.308Z,1.63
2023-03-11T17:54:46.453Z,1.70
2023-03-11T17:59:53.007Z,1.80
2023-03-11T18:02:25.792Z,1.75
2023-03-11T18:04:58.630Z,1.85
2023-03-11T18:07:38.101Z,1.75
2023-03-11T18:10:12.071Z,2.05
2023-03-11T18:12:46.982Z,1.52
2023-03-11T18:15:19.888Z,1.50
2023-03-11T18:20:28.032Z,1.85
2023-03-11T18:23:27.836Z,1.23
2023-03-11T18:29:00.917Z,1.63
2023-03-11T18:31:33.742Z,1.60
2023-03-11T18:36:49.832Z,1.30
2023-03-11T18:39:22.916Z,1.55
2023-03-11T18:41:56.141Z,1.40
2023-03-11T18:44:28.990Z,1.40
2023-03-11T18:47:01.891Z,1.40
2023-03-11T18:49:44.144Z,1.73
2023-03-11T18:52:54.567Z,1.40
2023-03-11T18:55:45.858Z,1.33
2023-03-11T18:58:25.362Z,1.48
2023-03-11T19:01:16.727Z,1.58
2023-03-11T19:04:22.102Z,1.30
2023-03-11T19:07:08.547Z,1.75
2023-03-11T19:09:53.087Z,1.60
2023-03-11T19:16:06.150Z,1.15
2023-03-11T19:18:41.399Z,1.35
2023-03-11T19:24:24.096Z,1.77
2023-03-11T19:27:01.151Z,1.73
2023-03-11T19:29:33.962Z,1.20
2023-03-11T19:36:50.315Z,1.35
2023-03-11T19:40:13.229Z,3.50
2023-03-11T19:43:19.802Z,1.48
2023-03-11T19:46:23.529Z,1.05
2023-03-11T19:49:37.491Z,1.75
2023-03-11T19:52:22.537Z,2.03
2023-03-11T19:55:29.580Z,1.60
2023-03-11T19:58:15.028Z,1.63
2023-03-11T20:01:43.872Z,1.70
2023-03-11T20:04:23.611Z,1.13
2023-03-11T20:07:23.720Z,1.55
2023-03-11T20:11:07.792Z,1.42
2023-03-11T20:22:36.819Z,2.25
2023-03-11T20:29:10.317Z,1.75
2023-03-11T20:31:54.853Z,1.33
2023-03-11T20:35:26.451Z,1.40
2023-03-11T20:39:19.313Z,1.30
2023-03-11T20:42:12.165Z,1.98
2023-03-11T20:56:41.493Z,1.10
2023-03-11T20:59:56.314Z,1.55
2023-03-11T21:05:52.189Z,1.70
2023-03-11T21:18:12.440Z,2.30
2023-03-11T21:20:46.151Z,3.15
2023-03-11T21:31:46.417Z,2.80
2023-03-11T21:34:22.433Z,3.13
2023-03-11T21:36:58.447Z,3.25
2023-03-11T21:39:36.486Z,4.05
2023-03-11T21:42:09.493Z,4.07
2023-03-11T21:44:48.805Z,3.40
2023-03-11T21:47:34.825Z,3.35
2023-03-11T21:50:11.508Z,3.55
2023-03-11T21:52:51.396Z,3.13
2023-03-11T21:55:24.256Z,2.80
2023-03-11T21:57:57.406Z,2.80
2023-03-11T22:00:33.576Z,3.13
2023-03-11T22:06:16.820Z,2.72
2023-03-11T22:09:21.464Z,4.10
2023-03-11T22:12:49.132Z,2.53
2023-03-11T22:15:43.714Z,2.85
2023-03-11T22:18:34.959Z,3.25
2023-03-11T22:22:31.994Z,3.50
2023-03-11T22:24:39.848Z,3.10
2023-03-11T22:27:24.539Z,2.67
2023-03-11T22:30:31.688Z,2.33
2023-03-11T22:33:20.039Z,2.97
2023-03-11T22:36:15.724Z,2.75
2023-03-11T22:38:50.849Z,3.90
2023-03-11T22:41:24.657Z,3.15
2023-03-11T22:44:56.695Z,2.47
2023-03-11T22:47:21.733Z,3.00
2023-03-11T22:50:23.738Z,2.53
2023-03-11T22:53:06.522Z,3.10
2023-03-11T22:58:57.209Z,2.65
2023-03-11T23:01:53.844Z,2.55
2023-03-11T23:04:40.140Z,3.38
2023-03-11T23:09:22.501Z,2.95
2023-03-11T23:11:14.361Z,2.90
2023-03-11T23:13:48.003Z,3.75
2023-03-11T23:16:44.835Z,3.13
2023-03-11T23:19:25.572Z,3.15
2023-03-11T23:23:08.260Z,3.67
2023-03-11T23:26:40.782Z,3.22
2023-03-11T23:33:07.023Z,3.28
2023-03-11T23:36:20.810Z,3.15
2023-03-11T23:39:07.878Z,2.83
2023-03-11T23:42:14.798Z,2.97
2023-03-11T23:52:01.973Z,3.45
2023-03-11T23:54:49.706Z,3.05
